createdAt,value
2023-06-27T00:00:12.794Z,2.08
2023-06-27T00:03:00.000Z,2.20
2023-06-27T00:05:47.357Z,2.30
2023-06-27T00:08:34.545Z,1.90
2023-06-27T00:11:21.436Z,1.90
2023-06-27T00:14:10.263Z,2.30
2023-06-27T00:16:58.490Z,2.40
2023-06-27T00:19:47.987Z,2.13
2023-06-27T00:22:34.925Z,2.30
2023-06-27T00:25:21.800Z,2.00
2023-06-27T00:28:08.698Z,2.03
2023-06-27T00:30:55.557Z,2.33
2023-06-27T00:33:42.472Z,2.10
2023-06-27T00:36:29.464Z,2.10
2023-06-27T00:39:16.358Z,2.00
2023-06-27T00:42:03.430Z,2.20
2023-06-27T00:44:50.372Z,2.20
2023-06-27T00:47:37.775Z,2.17
2023-06-27T00:50:25.540Z,2.15
2023-06-27T00:53:12.960Z,2.10
2023-06-27T00:55:59.881Z,2.22
2023-06-27T00:58:46.765Z,2.35
2023-06-27T01:01:33.640Z,2.20
2023-06-27T01:04:20.612Z,2.10
2023-06-27T01:07:12.240Z,2.10
2023-06-27T01:10:05.061Z,2.17
2023-06-27T01:13:07.148Z,2.15
2023-06-27T01:15:54.252Z,2.13
2023-06-27T01:18:42.472Z,2.03
2023-06-27T01:24:16.708Z,2.03
2023-06-27T01:27:04.230Z,2.10
2023-06-27T01:29:51.298Z,1.80
2023-06-27T01:32:50.927Z,2.05
2023-06-27T01:35:49.898Z,1.90
2023-06-27T01:38:39.617Z,2.22
2023-06-27T01:41:29.059Z,2.00
2023-06-27T01:44:17.314Z,2.22
2023-06-27T01:49:51.485Z,1.90
2023-06-27T01:52:38.349Z,2.13
2023-06-27T01:55:25.300Z,2.03
2023-06-27T01:58:12.458Z,2.17
2023-06-27T02:00:59.463Z,1.70
2023-06-27T02:03:46.425Z,1.90
2023-06-27T02:06:33.252Z,2.00
2023-06-27T02:09:20.168Z,1.98
2023-06-27T02:12:07.572Z,1.70
2023-06-27T02:14:54.487Z,2.00
2023-06-27T02:17:41.737Z,1.92
2023-06-27T02:20:29.962Z,1.67
2023-06-27T02:23:16.843Z,1.73
2023-06-27T02:26:04.730Z,1.88
2023-06-27T02:28:51.590Z,1.77
2023-06-27T02:31:38.505Z,1.52
2023-06-27T02:34:25.370Z,1.75
2023-06-27T02:37:12.249Z,1.73
2023-06-27T02:39:59.074Z,1.58
2023-06-27T02:42:45.974Z,1.70
2023-06-27T02:45:32.965Z,1.85
2023-06-27T02:48:19.868Z,1.65
2023-06-27T02:51:06.809Z,1.67
2023-06-27T02:53:53.752Z,1.65
2023-06-27T02:56:40.631Z,1.52
2023-06-27T02:59:27.482Z,1.30
2023-06-27T03:02:14.460Z,1.70
2023-06-27T03:05:01.372Z,1.60
2023-06-27T03:07:48.247Z,1.65
2023-06-27T03:10:35.147Z,1.60
2023-06-27T03:13:22.231Z,1.30
2023-06-27T03:16:09.156Z,1.60
2023-06-27T03:18:56.049Z,1.40
2023-06-27T03:21:42.910Z,1.50
2023-06-27T03:24:29.790Z,1.60
2023-06-27T03:30:06.511Z,1.40
2023-06-27T03:32:53.423Z,1.50
2023-06-27T03:35:40.676Z,1.30
2023-06-27T03:38:27.808Z,1.47
2023-06-27T03:41:14.688Z,1.40
2023-06-27T03:44:02.004Z,1.27
2023-06-27T03:46:49.011Z,1.60
2023-06-27T03:49:35.925Z,1.40
2023-06-27T03:52:22.838Z,1.50
2023-06-27T03:55:09.690Z,1.45
2023-06-27T03:57:56.536Z,1.45
2023-06-27T04:00:44.103Z,1.25
2023-06-27T04:03:31.072Z,1.35
2023-06-27T04:06:19.664Z,1.40
2023-06-27T04:09:07.145Z,1.33
2023-06-27T04:11:54.103Z,1.10
2023-06-27T04:14:41.313Z,1.30
2023-06-27T04:17:28.280Z,1.15
2023-06-27T04:20:15.377Z,1.40
2023-06-27T04:23:03.228Z,1.50
2023-06-27T04:26:04.117Z,1.40
2023-06-27T04:28:52.642Z,1.50
2023-06-27T04:31:39.671Z,1.05
2023-06-27T04:34:26.954Z,1.48
2023-06-27T04:37:13.838Z,1.42
2023-06-27T04:40:00.773Z,1.60
2023-06-27T04:42:48.294Z,1.52
2023-06-27T04:45:36.092Z,1.53
2023-06-27T04:48:22.936Z,1.20
2023-06-27T04:51:09.771Z,1.27
2023-06-27T04:53:56.939Z,1.30
2023-06-27T04:56:44.015Z,1.30
2023-06-27T04:59:32.467Z,1.58
2023-06-27T05:02:19.463Z,1.60
2023-06-27T05:05:09.206Z,1.25
2023-06-27T05:07:56.294Z,1.40
2023-06-27T05:10:44.558Z,1.60
2023-06-27T05:13:33.734Z,1.33
2023-06-27T05:16:20.976Z,1.30
2023-06-27T05:19:10.476Z,1.55
2023-06-27T05:21:57.410Z,1.40
2023-06-27T05:24:44.264Z,1.40
2023-06-27T05:27:31.192Z,1.45
2023-06-27T05:30:18.112Z,1.75
2023-06-27T05:33:05.313Z,1.30
2023-06-27T05:35:52.224Z,1.40
2023-06-27T05:38:39.066Z,1.60
2023-06-27T05:41:26.073Z,1.40
2023-06-27T05:44:12.873Z,1.45
2023-06-27T05:46:59.927Z,1.27
2023-06-27T05:49:46.825Z,1.55
2023-06-27T05:52:33.788Z,3.22
2023-06-27T05:55:20.732Z,2.75
2023-06-27T05:58:07.689Z,2.30
2023-06-27T06:00:55.827Z,1.73
2023-06-27T06:03:44.594Z,1.80
2023-06-27T06:06:34.775Z,2.22
2023-06-27T06:09:21.737Z,1.58
2023-06-27T06:12:08.966Z,1.50
2023-06-27T06:14:55.893Z,1.92
2023-06-27T06:17:42.751Z,1.65
2023-06-27T06:20:30.620Z,1.85
2023-06-27T06:23:17.462Z,1.92
2023-06-27T06:26:04.318Z,1.95
2023-06-27T06:28:51.235Z,1.67
2023-06-27T06:31:38.214Z,1.95
2023-06-27T06:34:25.109Z,1.70
2023-06-27T06:37:11.966Z,2.00
2023-06-27T06:39:58.874Z,1.65
2023-06-27T06:42:45.749Z,1.67
2023-06-27T06:45:32.633Z,1.45
2023-06-27T06:48:22.731Z,1.60
2023-06-27T06:51:09.617Z,1.60
2023-06-27T06:53:56.526Z,1.52
2023-06-27T06:56:43.436Z,1.42
2023-06-27T06:59:30.259Z,1.40
2023-06-27T07:02:17.514Z,1.40
2023-06-27T07:05:05.846Z,1.50
2023-06-27T07:10:39.957Z,1.42
2023-06-27T07:13:26.811Z,1.42
2023-06-27T07:16:13.836Z,1.40
2023-06-27T07:19:00.669Z,1.50
2023-06-27T07:21:47.630Z,1.40
2023-06-27T07:24:34.549Z,1.20
2023-06-27T07:27:21.416Z,1.58
2023-06-27T07:30:09.248Z,1.40
2023-06-27T07:32:56.183Z,1.33
2023-06-27T07:35:43.123Z,1.38
2023-06-27T07:38:30.035Z,1.25
2023-06-27T07:41:17.347Z,1.25
2023-06-27T07:44:04.274Z,1.27
2023-06-27T07:46:51.232Z,1.38
2023-06-27T07:49:40.617Z,1.60
2023-06-27T07:52:27.568Z,1.40
2023-06-27T07:55:14.516Z,1.30
2023-06-27T07:58:01.406Z,1.40
2023-06-27T08:00:48.195Z,1.33
2023-06-27T08:03:35.196Z,1.33
2023-06-27T08:06:22.488Z,1.35
2023-06-27T08:09:09.545Z,1.33
2023-06-27T08:11:56.394Z,1.33
2023-06-27T08:14:44.787Z,1.50
2023-06-27T08:20:19.214Z,1.42
2023-06-27T08:23:07.225Z,1.13
2023-06-27T08:25:55.241Z,1.23
2023-06-27T08:28:42.840Z,1.30
2023-06-27T08:31:29.758Z,1.00
2023-06-27T08:34:17.593Z,1.38
2023-06-27T08:37:04.580Z,1.15
2023-06-27T08:39:53.040Z,0.98
2023-06-27T08:45:26.754Z,0.90
2023-06-27T08:48:15.760Z,1.02
2023-06-27T08:51:03.411Z,1.38
2023-06-27T08:53:53.363Z,1.13
2023-06-27T08:56:41.461Z,1.17
2023-06-27T08:59:32.878Z,1.15
2023-06-27T09:02:19.875Z,1.00
2023-06-27T09:05:07.525Z,1.02
2023-06-27T09:07:54.465Z,1.00
2023-06-27T09:10:42.035Z,1.25
2023-06-27T09:13:29.112Z,1.10
2023-06-27T09:16:17.198Z,1.10
2023-06-27T09:19:06.038Z,1.00
2023-06-27T09:21:54.950Z,1.10
2023-06-27T09:24:43.036Z,1.30
2023-06-27T09:27:31.238Z,1.10
2023-06-27T09:30:18.185Z,1.10
2023-06-27T09:33:05.423Z,1.40
2023-06-27T09:36:01.935Z,1.20
2023-06-27T09:38:54.687Z,0.88
2023-06-27T09:41:46.553Z,1.13
2023-06-27T09:44:33.547Z,1.00
2023-06-27T09:47:25.654Z,1.10
2023-06-27T09:50:12.595Z,1.05
2023-06-27T09:53:00.571Z,1.15
2023-06-27T09:55:47.452Z,1.20
2023-06-27T09:58:35.593Z,1.23
2023-06-27T10:01:24.523Z,1.13
2023-06-27T10:04:14.057Z,1.38
2023-06-27T10:07:02.963Z,1.00
2023-06-27T10:09:51.156Z,1.10
2023-06-27T10:12:38.732Z,1.20
2023-06-27T10:15:25.637Z,1.23
2023-06-27T10:18:12.492Z,0.82
2023-06-27T10:20:59.771Z,0.90
2023-06-27T10:23:49.840Z,1.10
2023-06-27T10:26:37.291Z,1.20
2023-06-27T10:29:25.126Z,0.90
2023-06-27T10:32:15.944Z,0.93
2023-06-27T10:35:10.002Z,0.88
2023-06-27T10:38:16.336Z,1.00
2023-06-27T10:41:07.903Z,1.13
2023-06-27T10:43:54.905Z,0.88
2023-06-27T10:46:41.736Z,1.23
2023-06-27T10:49:37.899Z,1.27
2023-06-27T10:52:26.009Z,1.05
2023-06-27T10:55:19.771Z,1.20
2023-06-27T10:58:11.829Z,1.10
2023-06-27T11:01:00.941Z,1.23
2023-06-27T11:03:53.786Z,0.75
2023-06-27T11:06:46.705Z,1.10
2023-06-27T11:09:34.177Z,1.10
2023-06-27T11:12:22.584Z,1.02
2023-06-27T11:17:56.558Z,0.90
2023-06-27T11:20:44.325Z,1.15
2023-06-27T11:23:31.439Z,0.88
2023-06-27T11:26:22.073Z,1.00
2023-06-27T11:29:08.942Z,0.98
2023-06-27T11:31:56.678Z,0.90
2023-06-27T11:34:43.685Z,1.10
2023-06-27T11:37:30.702Z,1.30
2023-06-27T11:40:17.953Z,0.80
2023-06-27T11:43:08.933Z,1.10
2023-06-27T11:46:01.781Z,1.10
2023-06-27T11:48:49.011Z,1.00
2023-06-27T11:51:40.417Z,0.90
2023-06-27T11:54:27.266Z,1.10
2023-06-27T11:57:14.439Z,1.23
2023-06-27T12:00:01.293Z,1.20
2023-06-27T12:02:52.898Z,1.30
2023-06-27T12:05:45.566Z,1.23
2023-06-27T12:08:34.165Z,1.30
2023-06-27T12:11:27.195Z,1.20
2023-06-27T12:14:22.225Z,1.20
2023-06-27T12:17:29.301Z,1.10
2023-06-27T12:20:16.197Z,1.05
2023-06-27T12:23:03.141Z,1.02
2023-06-27T12:25:50.365Z,1.30
2023-06-27T12:29:01.255Z,1.10
2023-06-27T12:31:48.108Z,1.10
2023-06-27T12:34:37.244Z,1.10
2023-06-27T12:37:24.480Z,1.10
2023-06-27T12:40:12.555Z,1.20
2023-06-27T12:42:59.402Z,1.02
2023-06-27T12:46:04.744Z,1.13
2023-06-27T12:48:51.620Z,1.00
2023-06-27T12:51:38.573Z,0.90
2023-06-27T12:54:25.390Z,1.30
2023-06-27T12:57:12.280Z,1.10
2023-06-27T13:00:00.993Z,1.20
2023-06-27T13:02:57.821Z,1.10
2023-06-27T13:05:56.128Z,1.00
2023-06-27T13:08:42.972Z,1.20
2023-06-27T13:11:29.771Z,1.00
2023-06-27T13:14:16.635Z,1.10
2023-06-27T13:17:06.594Z,0.90
2023-06-27T13:19:53.495Z,1.15
2023-06-27T13:22:41.093Z,1.00
2023-06-27T13:25:28.513Z,1.13
2023-06-27T13:28:15.369Z,1.13
2023-06-27T13:31:02.332Z,1.20
2023-06-27T13:33:49.917Z,1.10
2023-06-27T13:36:36.815Z,1.00
2023-06-27T13:39:23.702Z,1.00
2023-06-27T13:42:12.085Z,1.17
2023-06-27T13:45:00.966Z,1.15
2023-06-27T13:47:47.963Z,1.23
2023-06-27T13:50:34.835Z,1.15
2023-06-27T13:53:22.713Z,1.23
2023-06-27T13:56:10.628Z,1.20
2023-06-27T13:58:59.139Z,1.02
2023-06-27T14:01:45.996Z,1.00
2023-06-27T14:04:33.790Z,0.90
2023-06-27T14:07:20.724Z,1.20
2023-06-27T14:10:08.460Z,1.20
2023-06-27T14:12:55.651Z,1.20
2023-06-27T14:15:42.802Z,1.08
2023-06-27T14:18:29.727Z,1.30
2023-06-27T14:21:17.841Z,1.00
2023-06-27T14:24:05.959Z,1.30
2023-06-27T14:26:52.816Z,0.90
2023-06-27T14:29:39.718Z,1.05
2023-06-27T14:32:26.701Z,1.20
2023-06-27T14:35:13.769Z,1.33
2023-06-27T14:38:00.718Z,1.00
2023-06-27T14:40:48.406Z,1.20
2023-06-27T14:43:35.298Z,1.20
2023-06-27T14:46:22.152Z,1.10
2023-06-27T14:49:08.982Z,1.20
2023-06-27T14:51:55.830Z,1.20
2023-06-27T14:54:42.744Z,1.30
2023-06-27T14:57:29.726Z,1.10
2023-06-27T15:00:19.445Z,1.30
2023-06-27T15:03:07.559Z,1.30
2023-06-27T15:05:57.430Z,1.08
2023-06-27T15:08:44.488Z,1.23
2023-06-27T15:11:31.297Z,1.20
2023-06-27T15:14:18.330Z,0.98
2023-06-27T15:17:05.855Z,1.30
2023-06-27T15:19:55.131Z,1.30
2023-06-27T15:22:44.794Z,1.00
2023-06-27T15:25:34.163Z,1.50
2023-06-27T15:28:24.427Z,1.38
2023-06-27T15:31:12.833Z,1.40
2023-06-27T15:33:59.836Z,1.42
2023-06-27T15:36:46.742Z,1.55
2023-06-27T15:39:33.876Z,1.20
2023-06-27T15:42:22.168Z,1.23
2023-06-27T15:47:56.224Z,1.10
2023-06-27T15:50:43.231Z,1.20
2023-06-27T15:53:30.516Z,1.13
2023-06-27T15:56:19.891Z,1.00
2023-06-27T15:59:07.325Z,1.15
2023-06-27T16:01:54.233Z,1.03
2023-06-27T16:04:41.259Z,1.20
2023-06-27T16:07:28.256Z,1.20
2023-06-27T16:10:15.140Z,0.98
2023-06-27T16:13:01.984Z,1.30
2023-06-27T16:15:48.895Z,1.17
2023-06-27T16:18:36.088Z,1.08
2023-06-27T16:21:25.818Z,1.00
2023-06-27T16:24:12.718Z,1.10
2023-06-27T16:26:59.669Z,1.15
2023-06-27T16:29:46.632Z,1.10
2023-06-27T16:32:34.780Z,1.17
2023-06-27T16:38:10.644Z,1.00
2023-06-27T16:40:57.534Z,1.00
2023-06-27T16:43:44.467Z,1.05
2023-06-27T16:46:35.985Z,0.90
2023-06-27T16:49:22.815Z,1.02
2023-06-27T16:52:09.683Z,1.10
2023-06-27T16:54:56.505Z,0.90
2023-06-27T16:57:44.442Z,1.08
2023-06-27T17:00:31.425Z,0.95
2023-06-27T17:03:19.381Z,1.08
2023-06-27T17:08:53.520Z,1.13
2023-06-27T17:11:40.372Z,1.15
2023-06-27T17:14:27.502Z,1.10
2023-06-27T17:17:14.498Z,1.15
2023-06-27T17:20:01.395Z,1.30
2023-06-27T17:22:48.344Z,1.27
2023-06-27T17:25:35.184Z,1.00
2023-06-27T17:28:22.140Z,1.10
2023-06-27T17:31:09.277Z,1.10
2023-06-27T17:33:56.178Z,1.30
2023-06-27T17:36:43.239Z,1.27
2023-06-27T17:39:30.106Z,1.17
2023-06-27T17:42:16.999Z,0.93
2023-06-27T17:45:04.202Z,1.30
2023-06-27T17:47:52.396Z,1.40
2023-06-27T17:53:27.343Z,1.30
2023-06-27T17:56:15.493Z,1.10
2023-06-27T17:59:02.365Z,1.40
2023-06-27T18:01:53.073Z,1.20
2023-06-27T18:04:40.194Z,1.25
2023-06-27T18:07:37.050Z,1.23
2023-06-27T18:10:25.795Z,1.20
2023-06-27T18:13:12.885Z,1.00
2023-06-27T18:15:59.752Z,1.15
2023-06-27T18:18:46.705Z,1.30
2023-06-27T18:21:33.738Z,1.25
2023-06-27T18:24:20.635Z,1.10
2023-06-27T18:27:07.760Z,1.30
2023-06-27T18:29:54.658Z,1.10
2023-06-27T18:32:46.246Z,1.30
2023-06-27T18:35:35.134Z,1.20
2023-06-27T18:38:22.094Z,1.10
2023-06-27T18:41:09.085Z,1.30
2023-06-27T18:43:55.998Z,1.40
2023-06-27T18:46:42.867Z,1.30
2023-06-27T18:49:32.829Z,1.20
2023-06-27T18:52:19.841Z,1.52
2023-06-27T18:55:06.881Z,1.33
2023-06-27T18:57:53.723Z,1.30
2023-06-27T19:00:41.617Z,1.30
2023-06-27T19:03:30.111Z,1.13
2023-06-27T19:09:04.336Z,1.25
2023-06-27T19:11:51.920Z,1.30
2023-06-27T19:14:38.836Z,1.30
2023-06-27T19:17:26.106Z,1.13
2023-06-27T19:20:13.552Z,1.48
2023-06-27T19:23:01.430Z,1.40
2023-06-27T19:25:48.331Z,1.27
2023-06-27T19:28:36.798Z,1.30
2023-06-27T19:31:23.780Z,1.42
2023-06-27T19:34:10.762Z,1.30
2023-06-27T19:36:57.716Z,1.42
2023-06-27T19:39:46.439Z,1.30
2023-06-27T19:42:35.564Z,1.30
2023-06-27T19:45:23.693Z,1.30
2023-06-27T19:48:10.556Z,1.30
2023-06-27T19:51:00.186Z,1.38
2023-06-27T19:53:47.071Z,1.40
2023-06-27T19:56:35.597Z,1.40
2023-06-27T19:59:22.499Z,1.40
2023-06-27T20:02:09.413Z,1.38
2023-06-27T20:04:56.268Z,1.30
2023-06-27T20:07:43.242Z,1.40
2023-06-27T20:10:30.245Z,1.20
2023-06-27T20:13:17.433Z,1.45
2023-06-27T20:16:04.543Z,1.30
2023-06-27T20:18:51.405Z,1.30
2023-06-27T20:21:38.943Z,1.50
2023-06-27T20:24:25.876Z,1.33
2023-06-27T20:27:13.664Z,1.13
2023-06-27T20:30:00.494Z,1.30
2023-06-27T20:32:47.495Z,1.40
2023-06-27T20:35:34.495Z,1.60
2023-06-27T20:38:21.333Z,1.42
2023-06-27T20:41:08.180Z,1.33
2023-06-27T20:43:55.112Z,1.58
2023-06-27T20:46:41.945Z,1.52
2023-06-27T20:49:28.788Z,1.70
2023-06-27T20:52:15.695Z,1.30
2023-06-27T20:55:02.697Z,1.70
2023-06-27T20:57:49.538Z,1.70
2023-06-27T21:00:39.017Z,1.70
2023-06-27T21:03:26.200Z,1.52
2023-06-27T21:06:17.930Z,1.55
2023-06-27T21:09:04.946Z,1.42
2023-06-27T21:11:51.777Z,1.55
2023-06-27T21:14:38.650Z,1.30
2023-06-27T21:17:29.288Z,1.48
2023-06-27T21:20:16.281Z,1.55
2023-06-27T21:23:03.137Z,1.50
2023-06-27T21:25:52.261Z,1.70
2023-06-27T21:28:39.517Z,1.65
2023-06-27T21:31:26.443Z,1.60
2023-06-27T21:34:13.413Z,1.58
2023-06-27T21:37:00.265Z,1.63
2023-06-27T21:39:47.242Z,1.60
2023-06-27T21:42:34.095Z,1.55
2023-06-27T21:45:21.062Z,1.60
2023-06-27T21:48:08.031Z,1.50
2023-06-27T21:50:55.003Z,1.55
2023-06-27T21:53:41.951Z,1.67
2023-06-27T21:56:28.814Z,1.60
2023-06-27T21:59:16.046Z,1.50
2023-06-27T22:02:03.363Z,1.70
2023-06-27T22:04:50.545Z,1.35
2023-06-27T22:07:39.004Z,1.38
2023-06-27T22:10:25.986Z,1.48
2023-06-27T22:13:12.863Z,1.30
2023-06-27T22:15:59.769Z,1.60
2023-06-27T22:18:50.060Z,1.30
2023-06-27T22:21:36.985Z,1.58
2023-06-27T22:24:29.570Z,1.60
2023-06-27T22:27:16.472Z,1.30
2023-06-27T22:30:05.908Z,1.40
2023-06-27T22:32:52.842Z,1.60
2023-06-27T22:35:39.802Z,1.63
2023-06-27T22:38:26.656Z,1.40
2023-06-27T22:41:13.553Z,1.40
2023-06-27T22:44:00.409Z,1.35
2023-06-27T22:46:47.322Z,1.23
2023-06-27T22:49:34.872Z,1.30
2023-06-27T22:52:21.726Z,1.40
2023-06-27T22:55:08.935Z,1.70
2023-06-27T22:57:55.767Z,1.70
2023-06-27T23:00:43.288Z,1.60
2023-06-27T23:03:30.924Z,1.40
2023-06-27T23:06:17.811Z,1.20
2023-06-27T23:09:05.037Z,1.50
2023-06-27T23:11:51.974Z,1.50
2023-06-27T23:14:38.806Z,1.40
2023-06-27T23:17:25.699Z,1.50
2023-06-27T23:20:12.738Z,1.30
2023-06-27T23:22:59.966Z,1.63
2023-06-27T23:25:49.577Z,1.55
2023-06-27T23:28:43.379Z,1.40
2023-06-27T23:31:35.131Z,1.20
2023-06-27T23:34:22.253Z,1.52
2023-06-27T23:37:11.051Z,1.38
2023-06-27T23:39:57.997Z,1.45
2023-06-27T23:42:44.869Z,1.23
2023-06-27T23:45:31.735Z,1.55
2023-06-27T23:48:18.602Z,1.25
2023-06-27T23:51:05.433Z,1.33
2023-06-27T23:53:52.295Z,1.40
2023-06-27T23:56:39.143Z,1.40
2023-06-27T23:59:26.281Z,1.38
